Aérodrome :
LOGIN :

S'inscrire | Disclaimer

   EN    FR    IT 

 










Légende :    VFR   VFR Marginal   IFR   IFR Intensif   IFR Très Intensif
Visi : 
Plafond : 
>= 8 km
>= 3000ft
5 à 8 km
1000 à 3000 ft
1500m à 5 km
500 à 1000 ft
800 à 1500m
200 à 500 ft
< 800m
< 200 ft
Symboles :   Orages  Brouillard  Fortes neiges  Fortes précipitations  Vent > 20 kt
SIGMETs :   Divers  Orages  Givrage  Turbulence  Onde Orograph.  Cendres Volcan.






- Altitude de l'aérodrome : 72 ft
- Code IATA : UDE


EHVK - Volkel Airbase

DERNIER METAR :
  • 210525Z AUTO 08011KT 050V110 2900 BR OVC004 02/01 Q1010 YLO

METARs EXPIRÉS :
  • 210455Z AUTO 08009KT 050V110 2900 BR OVC004 01/01 Q1011 YLO
  • 210425Z AUTO 09009KT 060V130 2900 BR BKN004 OVC005 01/01 Q1011 YLO
  • 210355Z AUTO 08010KT 050V110 2600 BR BKN003 OVC004 01/01 Q1011 YLO
  • 210325Z AUTO 08008KT 060V120 2400 BR BKN003 OVC004 01/01 Q1011 YLO
  • 210255Z AUTO 08009KT 060V120 2300 BR OVC003 01/01 Q1011 YLO

TAF TAF EHVK
Valide du 21 à 02h jusqu'au 21 à 14h UTC


210107Z 2102/2114 07006KT 2500 BR SCT004 BKN006
TEMPO 2102/2108 1200 BCFG SCT002 BKN004
PROB40
TEMPO 2102/2106 0400 FG FZFG BKN000
BECMG 2108/2111 8000 NSW FEW008



MET'MAP, la Météo Aéronautique d'un coup d'oeil ! - Copyright ORBIFLY Décembre 2007 - Disclaimer

ORBIFLY MET'MAP TEAM :

Programmation & Développement : Alexandra Zaïnal
Conception & Développement : Baudouin d'Aumeries
Co-Programmation & Développement : Marc-Olivier Méhu
Soutien technique & logistique : Manuel Goepfert

Contact : metmap@orbifly.com




SOURCES & CREDITS :

   NOAA